sensor_id;sensor_type;location;lat;lon;timestamp;pressure;altitude;pressure_sealevel;temperature;humidity
48796;BME280;34607;48.520;-1.330;2022-09-13T00:01:54;99272.25;;;23.80;72.38
48796;BME280;34607;48.520;-1.330;2022-09-13T00:04:21;99282.47;;;23.87;72.55
48796;BME280;34607;48.520;-1.330;2022-09-13T00:06:48;99250.28;;;23.63;72.58
48796;BME280;34607;48.520;-1.330;2022-09-13T00:09:15;99285.28;;;23.84;72.57
48796;BME280;34607;48.520;-1.330;2022-09-13T00:11:42;99286.97;;;23.85;72.44
48796;BME280;34607;48.520;-1.330;2022-09-13T00:14:09;99282.63;;;23.84;72.66
48796;BME280;34607;48.520;-1.330;2022-09-13T00:16:36;99280.16;;;23.81;72.71
48796;BME280;34607;48.520;-1.330;2022-09-13T00:19:05;99270.91;;;23.72;72.68
48796;BME280;34607;48.520;-1.330;2022-09-13T00:21:32;99282.06;;;23.78;72.74
48796;BME280;34607;48.520;-1.330;2022-09-13T00:23:59;99266.53;;;23.71;72.80
48796;BME280;34607;48.520;-1.330;2022-09-13T00:26:27;99270.75;;;23.75;72.89
48796;BME280;34607;48.520;-1.330;2022-09-13T00:28:56;99254.63;;;23.64;72.73
48796;BME280;34607;48.520;-1.330;2022-09-13T00:31:25;99259.66;;;23.69;72.76
48796;BME280;34607;48.520;-1.330;2022-09-13T00:33:53;99253.16;;;23.59;72.75
48796;BME280;34607;48.520;-1.330;2022-09-13T00:36:22;99274.66;;;23.68;72.68
48796;BME280;34607;48.520;-1.330;2022-09-13T00:38:49;99275.59;;;23.67;73.15
48796;BME280;34607;48.520;-1.330;2022-09-13T00:41:18;99271.34;;;23.65;73.18
48796;BME280;34607;48.520;-1.330;2022-09-13T00:43:48;99269.72;;;23.62;73.18
48796;BME280;34607;48.520;-1.330;2022-09-13T00:46:20;99272.59;;;23.58;73.15
48796;BME280;34607;48.520;-1.330;2022-09-13T00:48:56;99275.66;;;23.50;73.26
48796;BME280;34607;48.520;-1.330;2022-09-13T00:51:27;99276.13;;;23.58;73.40
48796;BME280;34607;48.520;-1.330;2022-09-13T00:53:57;99274.47;;;23.55;73.20
48796;BME280;34607;48.520;-1.330;2022-09-13T00:56:29;99284.13;;;23.56;73.27
48796;BME280;34607;48.520;-1.330;2022-09-13T00:59:00;99286.75;;;23.56;73.49
48796;BME280;34607;48.520;-1.330;2022-09-13T01:01:32;99284.13;;;23.56;73.48
48796;BME280;34607;48.520;-1.330;2022-09-13T01:04:03;99270.47;;;23.48;74.02
48796;BME280;34607;48.520;-1.330;2022-09-13T01:06:34;99269.53;;;23.49;73.58
48796;BME280;34607;48.520;-1.330;2022-09-13T01:09:03;99259.06;;;23.48;73.37
48796;BME280;34607;48.520;-1.330;2022-09-13T01:11:37;99260.56;;;23.52;73.59
48796;BME280;34607;48.520;-1.330;2022-09-13T01:14:07;99257.78;;;23.55;73.41
48796;BME280;34607;48.520;-1.330;2022-09-13T01:16:35;99252.50;;;23.55;73.30
48796;BME280;34607;48.520;-1.330;2022-09-13T01:19:03;99255.06;;;23.56;73.13
48796;BME280;34607;48.520;-1.330;2022-09-13T01:24:55;99263.22;;;23.52;72.92
48796;BME280;34607;48.520;-1.330;2022-09-13T01:27:34;99268.25;;;23.56;72.96
48796;BME280;34607;48.520;-1.330;2022-09-13T01:30:12;99267.50;;;23.54;73.06
48796;BME280;34607;48.520;-1.330;2022-09-13T01:33:01;99283.44;;;23.53;72.76
48796;BME280;34607;48.520;-1.330;2022-09-13T01:35:45;99263.13;;;23.37;73.15
48796;BME280;34607;48.520;-1.330;2022-09-13T01:38:37;99293.31;;;23.49;73.39
48796;BME280;34607;48.520;-1.330;2022-09-13T01:41:15;99295.38;;;23.44;73.90
48796;BME280;34607;48.520;-1.330;2022-09-13T01:43:53;99305.22;;;23.41;73.71
48796;BME280;34607;48.520;-1.330;2022-09-13T01:46:27;99308.88;;;23.38;73.87
48796;BME280;34607;48.520;-1.330;2022-09-13T01:49:01;99315.09;;;23.37;73.65
48796;BME280;34607;48.520;-1.330;2022-09-13T01:51:32;99292.34;;;23.34;73.60
48796;BME280;34607;48.520;-1.330;2022-09-13T01:54:15;99297.28;;;23.41;73.38
48796;BME280;34607;48.520;-1.330;2022-09-13T01:56:50;99292.72;;;23.44;73.45
48796;BME280;34607;48.520;-1.330;2022-09-13T01:59:28;99291.84;;;23.44;73.32
48796;BME280;34607;48.520;-1.330;2022-09-13T02:02:02;99292.72;;;23.44;73.61
48796;BME280;34607;48.520;-1.330;2022-09-13T02:04:36;99294.66;;;23.41;73.81
48796;BME280;34607;48.520;-1.330;2022-09-13T02:07:08;99285.34;;;23.33;73.97
48796;BME280;34607;48.520;-1.330;2022-09-13T02:09:42;99287.84;;;23.36;73.87
48796;BME280;34607;48.520;-1.330;2022-09-13T02:12:14;99287.47;;;23.27;73.84
48796;BME280;34607;48.520;-1.330;2022-09-13T02:14:44;99304.53;;;23.37;74.03
48796;BME280;34607;48.520;-1.330;2022-09-13T02:17:19;99314.41;;;23.33;73.99
48796;BME280;34607;48.520;-1.330;2022-09-13T02:19:52;99317.50;;;23.42;74.30
48796;BME280;34607;48.520;-1.330;2022-09-13T02:22:24;99323.03;;;23.37;74.08
48796;BME280;34607;48.520;-1.330;2022-09-13T02:24:56;99336.03;;;23.24;74.63
48796;BME280;34607;48.520;-1.330;2022-09-13T02:27:29;99332.00;;;23.17;74.64
48796;BME280;34607;48.520;-1.330;2022-09-13T02:30:04;99340.56;;;23.22;74.78
48796;BME280;34607;48.520;-1.330;2022-09-13T02:32:36;99354.69;;;23.21;75.15
48796;BME280;34607;48.520;-1.330;2022-09-13T02:35:09;99357.31;;;23.21;75.12
48796;BME280;34607;48.520;-1.330;2022-09-13T02:37:39;99350.94;;;23.25;75.15
48796;BME280;34607;48.520;-1.330;2022-09-13T02:40:13;99346.13;;;23.16;75.31
48796;BME280;34607;48.520;-1.330;2022-09-13T02:42:51;99363.28;;;23.25;75.04
48796;BME280;34607;48.520;-1.330;2022-09-13T02:45:24;99350.50;;;23.17;75.39
48796;BME280;34607;48.520;-1.330;2022-09-13T02:47:58;99341.97;;;23.12;75.29
48796;BME280;34607;48.520;-1.330;2022-09-13T02:50:34;99355.94;;;23.14;75.56
48796;BME280;34607;48.520;-1.330;2022-09-13T02:53:13;99360.44;;;23.12;75.57
48796;BME280;34607;48.520;-1.330;2022-09-13T02:55:47;99360.59;;;23.09;75.94
48796;BME280;34607;48.520;-1.330;2022-09-13T02:58:25;99314.75;;;22.92;76.18
48796;BME280;34607;48.520;-1.330;2022-09-13T03:00:56;99336.19;;;23.04;76.09
48796;BME280;34607;48.520;-1.330;2022-09-13T03:03:25;99325.69;;;23.02;76.08
48796;BME280;34607;48.520;-1.330;2022-09-13T03:05:52;99291.63;;;22.80;75.92
48796;BME280;34607;48.520;-1.330;2022-09-13T03:08:20;99343.72;;;23.11;76.25
48796;BME280;34607;48.520;-1.330;2022-09-13T03:10:57;99340.16;;;23.12;76.10
48796;BME280;34607;48.520;-1.330;2022-09-13T03:13:48;99333.25;;;23.10;75.70
48796;BME280;34607;48.520;-1.330;2022-09-13T03:16:32;99342.56;;;23.17;76.13
48796;BME280;34607;48.520;-1.330;2022-09-13T03:19:16;99342.56;;;23.17;75.98
48796;BME280;34607;48.520;-1.330;2022-09-13T03:21:59;99342.56;;;23.17;76.33
48796;BME280;34607;48.520;-1.330;2022-09-13T03:24:40;99352.34;;;23.15;76.37
48796;BME280;34607;48.520;-1.330;2022-09-13T03:27:18;99339.41;;;23.10;76.33
48796;BME280;34607;48.520;-1.330;2022-09-13T03:29:54;99337.97;;;23.03;76.54
48796;BME280;34607;48.520;-1.330;2022-09-13T03:32:27;99342.38;;;23.03;76.58
48796;BME280;34607;48.520;-1.330;2022-09-13T03:35:05;99325.63;;;23.04;76.72
48796;BME280;34607;48.520;-1.330;2022-09-13T03:37:40;99306.28;;;23.03;77.04
48796;BME280;34607;48.520;-1.330;2022-09-13T03:40:13;99292.56;;;22.96;77.25
48796;BME280;34607;48.520;-1.330;2022-09-13T03:42:44;99266.53;;;22.89;77.67
48796;BME280;34607;48.520;-1.330;2022-09-13T03:45:14;99237.13;;;22.79;77.78
48796;BME280;34607;48.520;-1.330;2022-09-13T03:47:44;99197.94;;;22.71;77.97
48796;BME280;34607;48.520;-1.330;2022-09-13T03:50:17;99136.84;;;22.46;78.63
48796;BME280;34607;48.520;-1.330;2022-09-13T03:52:46;99122.50;;;22.34;79.01
48796;BME280;34607;48.520;-1.330;2022-09-13T03:55:17;99150.88;;;22.46;78.52
48796;BME280;34607;48.520;-1.330;2022-09-13T03:57:44;99161.19;;;22.51;78.95
48796;BME280;34607;48.520;-1.330;2022-09-13T04:00:13;99158.41;;;22.54;79.04
48796;BME280;34607;48.520;-1.330;2022-09-13T04:02:42;99160.56;;;22.46;79.20
48796;BME280;34607;48.520;-1.330;2022-09-13T04:05:09;99148.31;;;22.44;78.91
48796;BME280;34607;48.520;-1.330;2022-09-13T04:07:38;99142.94;;;22.46;79.47
48796;BME280;34607;48.520;-1.330;2022-09-13T04:10:06;99152.59;;;22.47;79.45
48796;BME280;34607;48.520;-1.330;2022-09-13T04:12:33;99154.38;;;22.47;78.94
48796;BME280;34607;48.520;-1.330;2022-09-13T04:15:00;99154.28;;;22.48;79.09
48796;BME280;34607;48.520;-1.330;2022-09-13T04:17:27;99162.72;;;22.55;79.67
48796;BME280;34607;48.520;-1.330;2022-09-13T04:19:54;99155.59;;;22.57;79.67
48796;BME280;34607;48.520;-1.330;2022-09-13T04:22:21;99149.44;;;22.56;79.82
48796;BME280;34607;48.520;-1.330;2022-09-13T04:24:50;99149.59;;;22.53;79.57
48796;BME280;34607;48.520;-1.330;2022-09-13T04:27:17;99143.03;;;22.44;79.51
48796;BME280;34607;48.520;-1.330;2022-09-13T04:29:44;99143.72;;;22.48;79.25
48796;BME280;34607;48.520;-1.330;2022-09-13T04:32:11;99137.69;;;22.46;79.37
48796;BME280;34607;48.520;-1.330;2022-09-13T04:34:38;99130.78;;;22.43;79.66
48796;BME280;34607;48.520;-1.330;2022-09-13T04:37:05;99124.91;;;22.38;79.69
48796;BME280;34607;48.520;-1.330;2022-09-13T04:39:32;99131.78;;;22.41;79.88
48796;BME280;34607;48.520;-1.330;2022-09-13T04:42:01;99112.72;;;22.36;80.10
48796;BME280;34607;48.520;-1.330;2022-09-13T04:44:28;99128.00;;;22.47;80.43
48796;BME280;34607;48.520;-1.330;2022-09-13T04:46:55;99130.53;;;22.48;80.09
48796;BME280;34607;48.520;-1.330;2022-09-13T04:49:22;99132.25;;;22.49;80.16
48796;BME280;34607;48.520;-1.330;2022-09-13T04:51:49;99135.81;;;22.48;79.61
48796;BME280;34607;48.520;-1.330;2022-09-13T04:54:16;99139.56;;;22.44;79.97
48796;BME280;34607;48.520;-1.330;2022-09-13T04:56:43;99147.47;;;22.44;79.86
48796;BME280;34607;48.520;-1.330;2022-09-13T04:59:13;99158.00;;;22.44;80.02
48796;BME280;34607;48.520;-1.330;2022-09-13T05:01:41;99172.38;;;22.38;80.07
48796;BME280;34607;48.520;-1.330;2022-09-13T05:04:08;99177.25;;;22.29;80.61
48796;BME280;34607;48.520;-1.330;2022-09-13T05:06:35;99187.09;;;22.25;81.05
48796;BME280;34607;48.520;-1.330;2022-09-13T05:09:03;99198.72;;;22.21;81.56
48796;BME280;34607;48.520;-1.330;2022-09-13T05:11:30;99206.72;;;22.19;82.70
48796;BME280;34607;48.520;-1.330;2022-09-13T05:13:58;99192.84;;;22.16;83.11
48796;BME280;34607;48.520;-1.330;2022-09-13T05:16:29;99197.09;;;22.18;83.16
48796;BME280;34607;48.520;-1.330;2022-09-13T05:18:56;99211.81;;;22.22;83.37
48796;BME280;34607;48.520;-1.330;2022-09-13T05:21:24;99212.91;;;22.18;83.81
48796;BME280;34607;48.520;-1.330;2022-09-13T05:23:53;99174.81;;;21.89;83.77
48796;BME280;34607;48.520;-1.330;2022-09-13T05:26:22;99217.00;;;22.06;84.28
48796;BME280;34607;48.520;-1.330;2022-09-13T05:28:49;99195.69;;;21.94;84.21
48796;BME280;34607;48.520;-1.330;2022-09-13T05:31:18;99214.91;;;21.96;84.77
48796;BME280;34607;48.520;-1.330;2022-09-13T05:33:52;99189.38;;;21.79;84.08
48796;BME280;34607;48.520;-1.330;2022-09-13T05:36:20;99214.91;;;21.96;84.46
48796;BME280;34607;48.520;-1.330;2022-09-13T05:38:47;99214.91;;;21.96;84.13
48796;BME280;34607;48.520;-1.330;2022-09-13T05:41:14;99196.81;;;21.88;84.42
48796;BME280;34607;48.520;-1.330;2022-09-13T05:43:41;99205.13;;;21.98;84.06
48796;BME280;34607;48.520;-1.330;2022-09-13T05:46:10;99197.38;;;21.95;84.22
48796;BME280;34607;48.520;-1.330;2022-09-13T05:48:38;99191.78;;;21.83;84.82
48796;BME280;34607;48.520;-1.330;2022-09-13T05:51:07;99189.44;;;21.77;84.91
48796;BME280;34607;48.520;-1.330;2022-09-13T05:53:35;99200.69;;;21.81;84.99
48796;BME280;34607;48.520;-1.330;2022-09-13T05:56:04;99205.03;;;21.82;84.76
48796;BME280;34607;48.520;-1.330;2022-09-13T05:58:31;99209.91;;;21.89;84.71
48796;BME280;34607;48.520;-1.330;2022-09-13T06:01:00;99201.88;;;21.93;85.13
48796;BME280;34607;48.520;-1.330;2022-09-13T06:03:27;99213.94;;;21.97;85.46
48796;BME280;34607;48.520;-1.330;2022-09-13T06:05:54;99211.19;;;22.00;85.56
48796;BME280;34607;48.520;-1.330;2022-09-13T06:08:24;99210.63;;;21.93;85.61
48796;BME280;34607;48.520;-1.330;2022-09-13T06:10:56;99207.28;;;21.89;85.47
48796;BME280;34607;48.520;-1.330;2022-09-13T06:13:23;99202.97;;;21.88;85.67
48796;BME280;34607;48.520;-1.330;2022-09-13T06:15:51;99199.22;;;21.93;85.52
48796;BME280;34607;48.520;-1.330;2022-09-13T06:18:18;99195.91;;;21.89;85.32
48796;BME280;34607;48.520;-1.330;2022-09-13T06:20:45;99199.38;;;21.89;85.47
48796;BME280;34607;48.520;-1.330;2022-09-13T06:23:13;99198.38;;;21.92;85.31
48796;BME280;34607;48.520;-1.330;2022-09-13T06:25:42;99202.34;;;22.01;85.77
48796;BME280;34607;48.520;-1.330;2022-09-13T06:28:09;99192.66;;;22.01;85.26
48796;BME280;34607;48.520;-1.330;2022-09-13T06:30:36;99197.78;;;22.04;85.10
48796;BME280;34607;48.520;-1.330;2022-09-13T06:33:03;99196.94;;;22.04;85.38
48796;BME280;34607;48.520;-1.330;2022-09-13T06:35:30;99197.69;;;22.06;85.13
48796;BME280;34607;48.520;-1.330;2022-09-13T06:37:57;99199.31;;;22.08;84.91
48796;BME280;34607;48.520;-1.330;2022-09-13T06:40:25;99192.22;;;22.11;84.89
48796;BME280;34607;48.520;-1.330;2022-09-13T06:42:53;99203.59;;;22.11;85.04
48796;BME280;34607;48.520;-1.330;2022-09-13T06:45:21;99193.75;;;22.15;84.89
48796;BME280;34607;48.520;-1.330;2022-09-13T06:47:48;99191.19;;;22.13;84.89
48796;BME280;34607;48.520;-1.330;2022-09-13T06:50:15;99199.03;;;22.15;84.85
48796;BME280;34607;48.520;-1.330;2022-09-13T06:52:42;99189.56;;;22.11;85.03
48796;BME280;34607;48.520;-1.330;2022-09-13T06:55:09;99184.59;;;22.04;85.30
48796;BME280;34607;48.520;-1.330;2022-09-13T06:57:36;99192.03;;;22.14;85.21
48796;BME280;34607;48.520;-1.330;2022-09-13T07:00:06;99176.91;;;22.17;85.67
48796;BME280;34607;48.520;-1.330;2022-09-13T07:02:35;99185.38;;;22.24;85.02
48796;BME280;34607;48.520;-1.330;2022-09-13T07:05:02;99181.03;;;22.23;84.99
48796;BME280;34607;48.520;-1.330;2022-09-13T07:07:30;99172.38;;;22.21;84.87
48796;BME280;34607;48.520;-1.330;2022-09-13T07:09:57;99186.56;;;22.36;84.73
48796;BME280;34607;48.520;-1.330;2022-09-13T07:12:25;99182.69;;;22.43;84.48
48796;BME280;34607;48.520;-1.330;2022-09-13T07:14:52;99183.06;;;22.53;84.09
48796;BME280;34607;48.520;-1.330;2022-09-13T07:17:21;99174.75;;;22.60;84.36
48796;BME280;34607;48.520;-1.330;2022-09-13T07:19:48;99178.09;;;22.64;84.03
48796;BME280;34607;48.520;-1.330;2022-09-13T07:22:15;99173.97;;;22.58;83.96
48796;BME280;34607;48.520;-1.330;2022-09-13T07:24:42;99177.13;;;22.65;84.02
48796;BME280;34607;48.520;-1.330;2022-09-13T07:27:09;99180.38;;;22.70;83.82
48796;BME280;34607;48.520;-1.330;2022-09-13T07:29:37;99159.69;;;22.62;83.73
48796;BME280;34607;48.520;-1.330;2022-09-13T07:32:04;99170.53;;;22.74;83.87
48796;BME280;34607;48.520;-1.330;2022-09-13T07:34:33;99181.38;;;22.85;84.21
48796;BME280;34607;48.520;-1.330;2022-09-13T07:37:00;99188.91;;;22.93;84.26
48796;BME280;34607;48.520;-1.330;2022-09-13T07:39:27;99184.31;;;22.96;84.71
48796;BME280;34607;48.520;-1.330;2022-09-13T07:41:54;99165.16;;;22.93;84.62
48796;BME280;34607;48.520;-1.330;2022-09-13T07:44:21;99183.88;;;23.04;84.30
48796;BME280;34607;48.520;-1.330;2022-09-13T07:46:49;99178.69;;;23.03;84.52
48796;BME280;34607;48.520;-1.330;2022-09-13T07:49:17;99175.03;;;23.05;84.38
48796;BME280;34607;48.520;-1.330;2022-09-13T07:51:46;99170.13;;;23.15;84.24
48796;BME280;34607;48.520;-1.330;2022-09-13T07:54:16;99183.69;;;23.25;84.41
48796;BME280;34607;48.520;-1.330;2022-09-13T07:56:44;99184.28;;;23.30;85.16
48796;BME280;34607;48.520;-1.330;2022-09-13T07:59:13;99184.38;;;23.28;84.40
48796;BME280;34607;48.520;-1.330;2022-09-13T08:01:41;99193.94;;;23.31;83.91
48796;BME280;34607;48.520;-1.330;2022-09-13T08:04:10;99194.53;;;23.36;84.06
48796;BME280;34607;48.520;-1.330;2022-09-13T08:06:38;99198.59;;;23.42;84.06
48796;BME280;34607;48.520;-1.330;2022-09-13T08:09:08;99175.06;;;23.21;83.68
48796;BME280;34607;48.520;-1.330;2022-09-13T08:11:38;99194.59;;;23.34;84.42
48796;BME280;34607;48.520;-1.330;2022-09-13T08:14:08;99176.44;;;23.28;83.64
48796;BME280;34607;48.520;-1.330;2022-09-13T08:16:35;99196.03;;;23.40;83.67
48796;BME280;34607;48.520;-1.330;2022-09-13T08:19:04;99192.41;;;23.43;83.67
48796;BME280;34607;48.520;-1.330;2022-09-13T08:21:34;99190.44;;;23.46;84.15
48796;BME280;34607;48.520;-1.330;2022-09-13T08:24:02;99197.41;;;23.47;83.87
48796;BME280;34607;48.520;-1.330;2022-09-13T08:26:32;99196.47;;;23.48;83.71
48796;BME280;34607;48.520;-1.330;2022-09-13T08:29:03;99196.03;;;23.56;83.77
48796;BME280;34607;48.520;-1.330;2022-09-13T08:31:30;99196.84;;;23.58;83.53
48796;BME280;34607;48.520;-1.330;2022-09-13T08:33:58;99206.44;;;23.59;83.32
48796;BME280;34607;48.520;-1.330;2022-09-13T08:36:26;99204.41;;;23.64;83.04
48796;BME280;34607;48.520;-1.330;2022-09-13T08:38:55;99194.88;;;23.62;83.50
48796;BME280;34607;48.520;-1.330;2022-09-13T08:41:51;99165.53;;;23.50;83.31
48796;BME280;34607;48.520;-1.330;2022-09-13T08:44:25;99207.31;;;23.75;83.20
48796;BME280;34607;48.520;-1.330;2022-09-13T08:46:58;99220.22;;;23.80;83.09
48796;BME280;34607;48.520;-1.330;2022-09-13T08:49:33;99216.00;;;23.78;82.77
48796;BME280;34607;48.520;-1.330;2022-09-13T08:52:15;99228.44;;;23.75;82.77
48796;BME280;34607;48.520;-1.330;2022-09-13T08:54:42;99221.91;;;23.83;82.86
48796;BME280;34607;48.520;-1.330;2022-09-13T08:57:15;99227.88;;;23.86;82.44
48796;BME280;34607;48.520;-1.330;2022-09-13T08:59:53;99225.97;;;23.88;82.22
48796;BME280;34607;48.520;-1.330;2022-09-13T09:02:48;99230.94;;;23.95;81.77
48796;BME280;34607;48.520;-1.330;2022-09-13T09:05:20;99224.97;;;23.91;82.13
48796;BME280;34607;48.520;-1.330;2022-09-13T09:07:50;99226.66;;;23.92;82.40
48796;BME280;34607;48.520;-1.330;2022-09-13T09:10:21;99234.25;;;23.98;82.42
48796;BME280;34607;48.520;-1.330;2022-09-13T09:12:54;99240.97;;;24.04;82.06
48796;BME280;34607;48.520;-1.330;2022-09-13T09:15:23;99242.34;;;23.95;82.50
48796;BME280;34607;48.520;-1.330;2022-09-13T09:17:56;99230.13;;;24.08;82.76
48796;BME280;34607;48.520;-1.330;2022-09-13T09:20:29;99221.88;;;24.15;82.26
48796;BME280;34607;48.520;-1.330;2022-09-13T09:22:59;99217.66;;;24.10;82.64
48796;BME280;34607;48.520;-1.330;2022-09-13T09:25:27;99200.63;;;24.00;82.34
48796;BME280;34607;48.520;-1.330;2022-09-13T09:27:57;99227.53;;;24.23;82.18
48796;BME280;34607;48.520;-1.330;2022-09-13T09:30:32;99224.22;;;24.19;82.32
48796;BME280;34607;48.520;-1.330;2022-09-13T09:33:12;99216.66;;;24.13;82.68
48796;BME280;34607;48.520;-1.330;2022-09-13T09:35:50;99227.44;;;24.24;82.34
48796;BME280;34607;48.520;-1.330;2022-09-13T09:38:32;99224.88;;;24.23;82.25
48796;BME280;34607;48.520;-1.330;2022-09-13T09:41:03;99210.91;;;24.21;82.09
48796;BME280;34607;48.520;-1.330;2022-09-13T09:43:36;99222.75;;;24.29;82.33
48796;BME280;34607;48.520;-1.330;2022-09-13T09:46:06;99212.81;;;24.33;82.53
48796;BME280;34607;48.520;-1.330;2022-09-13T09:48:40;99221.75;;;24.46;82.22
48796;BME280;34607;48.520;-1.330;2022-09-13T09:51:10;99211.25;;;24.45;82.06
48796;BME280;34607;48.520;-1.330;2022-09-13T09:53:41;99218.75;;;24.53;81.91
48796;BME280;34607;48.520;-1.330;2022-09-13T09:56:19;99202.38;;;24.46;81.43
48796;BME280;34607;48.520;-1.330;2022-09-13T09:58:49;99229.56;;;24.64;81.54
48796;BME280;34607;48.520;-1.330;2022-09-13T10:01:27;99228.81;;;24.62;81.49
48796;BME280;34607;48.520;-1.330;2022-09-13T10:04:19;99226.06;;;24.63;81.16
48796;BME280;34607;48.520;-1.330;2022-09-13T10:06:48;99237.16;;;24.70;81.01
48796;BME280;34607;48.520;-1.330;2022-09-13T10:09:17;99233.56;;;24.71;81.28
48796;BME280;34607;48.520;-1.330;2022-09-13T10:11:47;99238.66;;;24.74;81.04
48796;BME280;34607;48.520;-1.330;2022-09-13T10:14:40;99237.50;;;24.64;80.93
48796;BME280;34607;48.520;-1.330;2022-09-13T10:17:16;99232.69;;;24.56;81.99
48796;BME280;34607;48.520;-1.330;2022-09-13T10:19:55;99243.28;;;24.56;82.17
48796;BME280;34607;48.520;-1.330;2022-09-13T10:22:24;99235.31;;;24.56;81.72
48796;BME280;34607;48.520;-1.330;2022-09-13T10:24:52;99234.63;;;24.53;81.97
48796;BME280;34607;48.520;-1.330;2022-09-13T10:27:24;99246.59;;;24.60;82.24
48796;BME280;34607;48.520;-1.330;2022-09-13T10:29:55;99247.25;;;24.63;82.71
48796;BME280;34607;48.520;-1.330;2022-09-13T10:32:26;99244.50;;;24.65;82.46
48796;BME280;34607;48.520;-1.330;2022-09-13T10:34:54;99234.09;;;24.62;82.75
48796;BME280;34607;48.520;-1.330;2022-09-13T10:37:26;99234.94;;;24.62;83.12
48796;BME280;34607;48.520;-1.330;2022-09-13T10:40:01;99252.19;;;24.70;83.07
48796;BME280;34607;48.520;-1.330;2022-09-13T10:42:30;99238.56;;;24.61;83.66
48796;BME280;34607;48.520;-1.330;2022-09-13T10:45:01;99246.97;;;24.68;83.32
48796;BME280;34607;48.520;-1.330;2022-09-13T10:47:33;99245.81;;;24.58;83.84
48796;BME280;34607;48.520;-1.330;2022-09-13T10:50:18;99234.97;;;24.46;84.32
48796;BME280;34607;48.520;-1.330;2022-09-13T10:52:46;99235.47;;;24.53;84.53
48796;BME280;34607;48.520;-1.330;2022-09-13T10:55:32;99223.72;;;24.43;84.75
48796;BME280;34607;48.520;-1.330;2022-09-13T10:58:18;99240.94;;;24.50;84.49
48796;BME280;34607;48.520;-1.330;2022-09-13T11:01:16;99237.72;;;24.45;85.15
48796;BME280;34607;48.520;-1.330;2022-09-13T11:04:01;99224.56;;;24.43;85.34
48796;BME280;34607;48.520;-1.330;2022-09-13T11:06:39;99222.84;;;24.58;85.08
48796;BME280;34607;48.520;-1.330;2022-09-13T11:09:11;99208.69;;;24.43;85.16
48796;BME280;34607;48.520;-1.330;2022-09-13T11:11:45;99222.50;;;24.48;85.81
48796;BME280;34607;48.520;-1.330;2022-09-13T11:14:27;99223.81;;;24.41;85.97
48796;BME280;34607;48.520;-1.330;2022-09-13T11:17:05;99203.38;;;24.29;86.50
48796;BME280;34607;48.520;-1.330;2022-09-13T11:19:51;99189.47;;;24.25;86.25
48796;BME280;34607;48.520;-1.330;2022-09-13T11:25:32;99175.91;;;24.01;87.59
48796;BME280;34607;48.520;-1.330;2022-09-13T11:28:08;99191.06;;;24.14;87.70
48796;BME280;34607;48.520;-1.330;2022-09-13T11:30:53;99190.50;;;24.23;87.43
48796;BME280;34607;48.520;-1.330;2022-09-13T11:33:31;99182.47;;;24.24;87.55
48796;BME280;34607;48.520;-1.330;2022-09-13T11:36:19;99176.91;;;24.29;86.99
48796;BME280;34607;48.520;-1.330;2022-09-13T11:38:58;99179.47;;;24.30;87.14
48796;BME280;34607;48.520;-1.330;2022-09-13T11:41:36;99185.88;;;24.26;87.33
48796;BME280;34607;48.520;-1.330;2022-09-13T11:47:04;99175.84;;;24.17;87.77
48796;BME280;34607;48.520;-1.330;2022-09-13T11:49:58;99174.50;;;24.10;88.00
48796;BME280;34607;48.520;-1.330;2022-09-13T11:52:35;99176.09;;;24.12;88.55
48796;BME280;34607;48.520;-1.330;2022-09-13T11:55:14;99169.88;;;24.14;88.71
48796;BME280;34607;48.520;-1.330;2022-09-13T11:57:45;99176.31;;;24.09;89.13
48796;BME280;34607;48.520;-1.330;2022-09-13T12:00:21;99161.81;;;24.01;88.85
48796;BME280;34607;48.520;-1.330;2022-09-13T12:03:01;99170.69;;;24.00;89.13
48796;BME280;34607;48.520;-1.330;2022-09-13T12:05:34;99165.59;;;23.97;89.56
48796;BME280;34607;48.520;-1.330;2022-09-13T12:08:06;99167.97;;;24.01;89.44
48796;BME280;34607;48.520;-1.330;2022-09-13T12:10:44;99159.16;;;24.01;89.30
48796;BME280;34607;48.520;-1.330;2022-09-13T12:13:16;99150.38;;;24.00;89.56
48796;BME280;34607;48.520;-1.330;2022-09-13T12:15:45;99160.31;;;24.11;89.67
48796;BME280;34607;48.520;-1.330;2022-09-13T12:18:16;99153.25;;;24.11;89.41
48796;BME280;34607;48.520;-1.330;2022-09-13T12:20:49;99155.25;;;24.22;89.57
48796;BME280;34607;48.520;-1.330;2022-09-13T12:23:23;99140.63;;;24.17;89.21
48796;BME280;34607;48.520;-1.330;2022-09-13T12:25:58;99147.00;;;24.12;89.27
48796;BME280;34607;48.520;-1.330;2022-09-13T12:28:30;99139.72;;;24.02;89.50
48796;BME280;34607;48.520;-1.330;2022-09-13T12:31:04;99142.28;;;24.03;89.63
48796;BME280;34607;48.520;-1.330;2022-09-13T12:33:32;99147.69;;;24.16;89.50
48796;BME280;34607;48.520;-1.330;2022-09-13T12:36:16;99145.72;;;24.20;88.84
48796;BME280;34607;48.520;-1.330;2022-09-13T12:41:48;99141.28;;;24.20;88.76
48796;BME280;34607;48.520;-1.330;2022-09-13T12:47:19;99141.22;;;24.36;88.56
48796;BME280;34607;48.520;-1.330;2022-09-13T12:50:09;99125.91;;;24.41;88.26
48796;BME280;34607;48.520;-1.330;2022-09-13T12:52:45;99128.63;;;24.56;88.06
48796;BME280;34607;48.520;-1.330;2022-09-13T13:01:24;99112.00;;;24.38;88.32
48796;BME280;34607;48.520;-1.330;2022-09-13T13:03:54;99111.75;;;24.42;88.49
48796;BME280;34607;48.520;-1.330;2022-09-13T13:06:32;99123.88;;;24.61;88.20
48796;BME280;34607;48.520;-1.330;2022-09-13T13:09:05;99114.78;;;24.51;88.57
48796;BME280;34607;48.520;-1.330;2022-09-13T13:11:45;99098.59;;;24.41;87.87
48796;BME280;34607;48.520;-1.330;2022-09-13T13:14:45;99107.53;;;24.54;87.58
48796;BME280;34607;48.520;-1.330;2022-09-13T13:17:40;99106.59;;;24.70;87.54
48796;BME280;34607;48.520;-1.330;2022-09-13T13:20:46;99098.34;;;24.89;87.03
48796;BME280;34607;48.520;-1.330;2022-09-13T13:23:19;99091.66;;;25.10;86.53
48796;BME280;34607;48.520;-1.330;2022-09-13T13:25:58;99060.84;;;25.09;85.16
48796;BME280;34607;48.520;-1.330;2022-09-13T13:28:53;99088.06;;;25.26;84.40
48796;BME280;34607;48.520;-1.330;2022-09-13T13:31:34;99072.28;;;25.10;84.26
48796;BME280;34607;48.520;-1.330;2022-09-13T13:34:24;99085.44;;;25.11;84.34
48796;BME280;34607;48.520;-1.330;2022-09-13T13:36:53;99078.72;;;25.05;84.24
48796;BME280;34607;48.520;-1.330;2022-09-13T13:39:48;99088.44;;;25.05;83.68